Time;durP1;ratioP1;P1;durP2;ratioP2;P2;SDS_P1;SDS_P2;PMS_P1;PMS_P2;Temp;Humidity;BMP_temperature;BMP_pressure;BME280_temperature;BME280_humidity;BME280_pressure;Samples;Min_cycle;Max_cycle;Signal;HPM_P1;HPM_P2
2023/11/03 00:00:07;;;;;;;0.40;0.30;;;6.40;99.90;;;;;;5073480;28;20448;-82
2023/11/03 00:02:34;;;;;;;0.30;0.30;;;6.50;99.90;;;;;;5073978;28;20433;-82
2023/11/03 00:05:04;;;;;;;0.50;0.40;;;6.50;99.90;;;;;;5073446;28;20463;-82
2023/11/03 00:07:32;;;;;;;1.37;0.60;;;6.50;99.90;;;;;;5073756;28;20425;-82
2023/11/03 00:10:00;;;;;;;0.50;0.50;;;6.50;99.90;;;;;;5073379;28;20448;-82
2023/11/03 00:12:27;;;;;;;0.30;0.30;;;6.50;99.90;;;;;;5073286;28;20502;-82
2023/11/03 00:14:54;;;;;;;0.30;0.20;;;6.50;99.90;;;;;;5073370;28;20465;-82
2023/11/03 00:17:20;;;;;;;0.30;0.30;;;6.40;99.90;;;;;;5074065;28;20453;-82
2023/11/03 00:19:48;;;;;;;1.53;0.37;;;6.50;99.90;;;;;;5073459;28;20445;-82
2023/11/03 00:22:15;;;;;;;0.30;0.20;;;6.50;99.90;;;;;;5073474;28;20455;-82
2023/11/03 00:24:42;;;;;;;0.40;0.30;;;6.50;99.90;;;;;;5073255;28;20844;-82
2023/11/03 00:27:10;;;;;;;0.40;0.30;;;6.50;99.90;;;;;;5073179;28;20813;-82
2023/11/03 00:29:37;;;;;;;0.30;0.20;;;6.50;99.90;;;;;;5073479;28;20437;-82
2023/11/03 00:32:06;;;;;;;0.50;0.30;;;7.10;99.90;;;;;;5073384;28;20826;-82
2023/11/03 00:34:33;;;;;;;0.83;0.30;;;6.40;99.90;;;;;;5073558;28;20468;-82
2023/11/03 00:37:00;;;;;;;0.87;0.50;;;6.40;99.90;;;;;;5072747;28;21040;-82
2023/11/03 00:39:27;;;;;;;0.30;0.30;;;6.40;99.90;;;;;;5073180;28;20804;-82
2023/11/03 00:41:53;;;;;;;0.30;0.30;;;6.40;99.90;;;;;;5072907;28;20481;-82
2023/11/03 00:44:22;;;;;;;0.30;0.30;;;6.40;99.90;;;;;;5073166;28;20467;-82
2023/11/03 00:46:49;;;;;;;0.30;0.30;;;6.30;99.90;;;;;;5073212;28;20548;-82
2023/11/03 00:49:18;;;;;;;0.30;0.30;;;6.30;99.90;;;;;;5073236;28;20532;-82
2023/11/03 00:51:45;;;;;;;0.50;0.40;;;6.30;99.90;;;;;;5072898;28;20451;-82
2023/11/03 00:54:12;;;;;;;0.30;0.30;;;6.20;99.90;;;;;;5073126;28;20465;-82
2023/11/03 00:56:39;;;;;;;0.30;0.30;;;6.20;99.90;;;;;;5072729;28;21091;-82
2023/11/03 00:59:07;;;;;;;0.30;0.30;;;6.20;99.90;;;;;;5073107;28;20448;-82
2023/11/03 01:01:35;;;;;;;2.47;0.40;;;6.20;99.90;;;;;;5072813;28;20988;-82
2023/11/03 01:04:02;;;;;;;0.37;0.33;;;6.20;99.90;;;;;;5072946;28;20514;-82
2023/11/03 01:06:29;;;;;;;0.30;0.30;;;6.20;99.90;;;;;;5073273;28;20441;-82
2023/11/03 01:08:57;;;;;;;0.40;0.40;;;6.10;99.90;;;;;;5072919;28;20971;-82
2023/11/03 01:11:24;;;;;;;0.30;0.20;;;6.10;99.90;;;;;;5073241;28;20448;-82
2023/11/03 01:13:51;;;;;;;0.30;0.30;;;6.10;99.90;;;;;;5072922;28;20467;-82
2023/11/03 01:16:19;;;;;;;0.40;0.30;;;6.10;99.90;;;;;;5072891;28;20484;-82
2023/11/03 01:18:47;;;;;;;0.43;0.43;;;6.00;99.90;;;;;;5072795;28;20453;-82
2023/11/03 01:21:15;;;;;;;1.53;0.70;;;6.00;99.90;;;;;;5073142;28;20520;-82
2023/11/03 01:23:42;;;;;;;0.40;0.33;;;6.00;99.90;;;;;;5073198;28;20559;-82
2023/11/03 01:26:10;;;;;;;0.30;0.30;;;6.00;99.90;;;;;;5072779;28;20444;-82
2023/11/03 01:28:37;;;;;;;0.30;0.30;;;6.00;99.90;;;;;;5073462;28;20495;-81
2023/11/03 01:31:05;;;;;;;0.30;0.30;;;6.10;99.90;;;;;;5076100;28;20445;-82
2023/11/03 01:33:32;;;;;;;0.50;0.50;;;6.00;99.90;;;;;;5072751;28;21004;-82
2023/11/03 01:36:04;;;;;;;0.40;0.30;;;6.10;99.90;;;;;;5072861;28;20480;-82
2023/11/03 01:38:30;;;;;;;0.30;0.30;;;6.10;99.90;;;;;;5072518;28;20964;-82
2023/11/03 01:41:00;;;;;;;0.30;0.30;;;6.20;99.90;;;;;;5072721;28;20532;-82
2023/11/03 01:43:26;;;;;;;0.30;0.30;;;6.20;99.90;;;;;;5072626;28;20461;-82
2023/11/03 01:45:53;;;;;;;0.40;0.30;;;6.20;99.90;;;;;;5072396;28;20440;-82
2023/11/03 01:48:21;;;;;;;0.30;0.30;;;6.20;99.90;;;;;;5072610;28;20447;-81
2023/11/03 01:50:47;;;;;;;0.47;0.47;;;6.20;99.90;;;;;;5075401;28;20451;-82
2023/11/03 01:53:17;;;;;;;0.70;0.40;;;6.20;99.90;;;;;;5076136;28;20796;-81
2023/11/03 01:55:44;;;;;;;0.40;0.30;;;6.20;99.90;;;;;;5076052;28;20477;-81
2023/11/03 01:58:11;;;;;;;0.30;0.20;;;6.10;99.90;;;;;;5076155;28;20498;-82
2023/11/03 02:00:38;;;;;;;1.23;0.33;;;6.10;99.90;;;;;;5076134;28;20445;-82
2023/11/03 02:03:05;;;;;;;0.87;0.30;;;6.10;99.90;;;;;;5075932;28;20445;-82
2023/11/03 02:05:32;;;;;;;0.30;0.30;;;6.10;99.90;;;;;;5075931;28;20440;-81
2023/11/03 02:07:59;;;;;;;3.13;0.30;;;6.10;99.90;;;;;;5076908;28;20445;-81
2023/11/03 02:10:27;;;;;;;0.30;0.30;;;6.10;99.90;;;;;;5075917;28;20494;-82
2023/11/03 02:12:53;;;;;;;0.40;0.30;;;6.10;99.90;;;;;;5075848;28;20448;-81
2023/11/03 02:15:21;;;;;;;0.37;0.30;;;6.00;99.90;;;;;;5075330;28;21001;-82
2023/11/03 02:17:49;;;;;;;0.40;0.30;;;6.00;99.90;;;;;;5075804;28;20445;-82
2023/11/03 02:20:16;;;;;;;0.33;0.27;;;6.00;99.90;;;;;;5075764;28;20461;-81
2023/11/03 02:22:43;;;;;;;0.73;0.43;;;5.90;99.90;;;;;;5075389;28;20921;-82
2023/11/03 02:25:11;;;;;;;0.40;0.30;;;5.80;99.90;;;;;;5075567;28;20480;-82
2023/11/03 02:27:38;;;;;;;6.13;0.40;;;5.90;99.90;;;;;;5075660;28;20444;-81
2023/11/03 02:30:06;;;;;;;0.47;0.30;;;5.90;99.90;;;;;;5075532;28;20456;-81
2023/11/03 02:32:34;;;;;;;0.30;0.20;;;5.90;99.90;;;;;;5075450;28;20452;-82
2023/11/03 02:35:01;;;;;;;0.30;0.30;;;6.00;99.90;;;;;;5075157;28;20453;-82
2023/11/03 02:37:27;;;;;;;0.30;0.30;;;6.00;99.90;;;;;;5075059;28;20464;-82
2023/11/03 02:39:55;;;;;;;1.13;0.40;;;6.00;99.90;;;;;;5075010;28;20449;-82
2023/11/03 02:42:23;;;;;;;0.37;0.33;;;6.00;99.90;;;;;;5075316;28;20479;-82
2023/11/03 02:44:50;;;;;;;0.30;0.30;;;6.10;99.90;;;;;;5075213;28;20472;-82
2023/11/03 02:47:16;;;;;;;0.30;0.30;;;6.10;99.90;;;;;;5075031;28;20492;-82
2023/11/03 02:49:42;;;;;;;0.33;0.33;;;6.00;99.90;;;;;;5075246;28;21007;-82
2023/11/03 02:52:10;;;;;;;0.30;0.30;;;6.00;99.90;;;;;;5075251;28;20203;-82
2023/11/03 02:54:37;;;;;;;6.63;0.60;;;6.30;99.90;;;;;;5074785;28;21056;-82
2023/11/03 02:57:04;;;;;;;0.50;0.47;;;6.00;99.90;;;;;;5074683;28;20856;-82
2023/11/03 02:59:32;;;;;;;0.83;0.30;;;6.00;99.90;;;;;;5074948;28;20457;-82
2023/11/03 03:01:59;;;;;;;0.30;0.30;;;6.00;99.90;;;;;;5075216;28;20428;-81
2023/11/03 03:04:26;;;;;;;0.30;0.30;;;6.00;99.90;;;;;;5074478;28;20460;-81
2023/11/03 03:06:52;;;;;;;0.30;0.30;;;6.00;99.90;;;;;;5074477;28;21028;-82
2023/11/03 03:09:19;;;;;;;0.40;0.40;;;6.00;99.90;;;;;;5074838;28;20473;-81
2023/11/03 03:11:46;;;;;;;8.40;0.40;;;6.00;99.90;;;;;;5074743;28;20198;-81
2023/11/03 03:14:12;;;;;;;0.30;0.30;;;6.10;99.90;;;;;;5074579;28;20818;-82
2023/11/03 03:16:40;;;;;;;1.37;0.33;;;5.90;99.90;;;;;;5074212;28;20483;-82
2023/11/03 03:19:07;;;;;;;1.33;0.40;;;5.90;99.90;;;;;;5074605;28;20886;-81
2023/11/03 03:21:34;;;;;;;0.40;0.40;;;7.30;99.90;;;;;;5074208;28;20942;-82
2023/11/03 03:24:01;;;;;;;0.30;0.30;;;6.00;99.90;;;;;;5074417;28;20555;-81
2023/11/03 03:26:27;;;;;;;0.40;0.30;;;6.00;99.90;;;;;;5074086;28;20934;-81
2023/11/03 03:28:55;;;;;;;0.30;0.20;;;6.00;99.90;;;;;;5074478;28;20441;-82
2023/11/03 03:31:22;;;;;;;0.30;0.27;;;6.10;99.90;;;;;;5074343;28;20441;-81
2023/11/03 03:33:50;;;;;;;0.60;0.50;;;6.10;99.90;;;;;;5074422;28;20465;-81
2023/11/03 03:36:17;;;;;;;0.33;0.33;;;6.10;99.90;;;;;;5074166;28;20481;-81
2023/11/03 03:38:44;;;;;;;0.40;0.40;;;6.10;99.90;;;;;;5074156;28;20445;-82
2023/11/03 03:41:15;;;;;;;0.30;0.30;;;6.20;99.90;;;;;;5073766;28;20452;-82
2023/11/03 03:43:42;;;;;;;0.30;0.30;;;6.20;99.90;;;;;;5074201;28;20476;-82
2023/11/03 03:46:09;;;;;;;0.40;0.30;;;6.20;99.90;;;;;;5073714;28;20445;-82
2023/11/03 03:48:36;;;;;;;0.40;0.30;;;6.20;99.90;;;;;;5074032;28;20441;-81
2023/11/03 03:51:04;;;;;;;0.47;0.40;;;6.30;99.90;;;;;;5073904;28;20440;-81
2023/11/03 03:53:31;;;;;;;0.30;0.30;;;6.30;99.90;;;;;;5073683;28;20473;-81
2023/11/03 03:55:59;;;;;;;0.30;0.20;;;6.30;99.90;;;;;;5073873;28;20544;-81
2023/11/03 03:58:26;;;;;;;0.30;0.20;;;6.30;99.90;;;;;;5073487;28;20950;-82
2023/11/03 04:00:53;;;;;;;0.70;0.50;;;6.20;99.90;;;;;;5073761;28;20449;-82
2023/11/03 04:03:20;;;;;;;0.30;0.20;;;6.30;99.90;;;;;;5073656;28;20540;-82
2023/11/03 04:05:46;;;;;;;0.30;0.27;;;6.30;99.90;;;;;;5073758;28;20452;-82
2023/11/03 04:08:14;;;;;;;0.30;0.30;;;6.30;99.90;;;;;;5073332;28;20935;-82
2023/11/03 04:10:41;;;;;;;0.30;0.27;;;6.40;99.90;;;;;;5073605;28;20444;-82
2023/11/03 04:13:08;;;;;;;0.50;0.37;;;6.30;99.90;;;;;;5073136;28;20452;-82
2023/11/03 04:15:35;;;;;;;4.03;1.37;;;6.30;99.90;;;;;;5073583;28;20448;-83
2023/11/03 04:18:01;;;;;;;0.30;0.30;;;6.20;99.90;;;;;;5073567;28;20485;-83
2023/11/03 04:20:28;;;;;;;0.30;0.20;;;6.30;99.90;;;;;;5073179;28;20952;-82
2023/11/03 04:22:56;;;;;;;0.83;0.40;;;6.30;99.90;;;;;;5073447;28;20452;-82
2023/11/03 04:25:24;;;;;;;0.73;0.40;;;6.40;99.90;;;;;;5073557;28;20514;-82
2023/11/03 04:27:51;;;;;;;0.30;0.30;;;6.40;99.90;;;;;;5073465;28;20441;-82
2023/11/03 04:30:18;;;;;;;0.30;0.30;;;6.40;99.90;;;;;;5073386;28;20444;-82
2023/11/03 04:32:45;;;;;;;0.67;0.43;;;6.50;99.90;;;;;;5074281;28;20444;-82
2023/11/03 04:35:11;;;;;;;0.40;0.40;;;6.50;99.90;;;;;;5073312;28;20812;-82
2023/11/03 04:37:38;;;;;;;0.40;0.40;;;6.60;99.90;;;;;;5072974;28;20476;-82
2023/11/03 04:40:06;;;;;;;0.30;0.20;;;6.60;99.90;;;;;;5073533;28;20437;-82
2023/11/03 04:42:35;;;;;;;0.40;0.30;;;6.60;99.90;;;;;;5073040;28;20483;-82
2023/11/03 04:45:01;;;;;;;0.30;0.27;;;6.60;99.90;;;;;;5073194;28;20460;-82
2023/11/03 04:47:28;;;;;;;0.83;0.83;;;6.60;99.90;;;;;;5072886;28;21057;-82
2023/11/03 04:49:55;;;;;;;0.33;0.30;;;6.50;99.90;;;;;;5073171;28;20452;-82
2023/11/03 04:52:21;;;;;;;0.33;0.27;;;6.50;99.90;;;;;;5073167;28;20445;-82
2023/11/03 04:54:48;;;;;;;1.07;0.40;;;6.50;99.90;;;;;;5072784;28;20994;-82
2023/11/03 04:57:16;;;;;;;0.30;0.20;;;6.50;99.90;;;;;;5072760;28;20484;-82
2023/11/03 04:59:44;;;;;;;0.30;0.30;;;6.50;99.90;;;;;;5073422;28;20429;-82
2023/11/03 05:02:11;;;;;;;0.37;0.37;;;6.50;99.90;;;;;;5073097;28;20455;-82
2023/11/03 05:04:38;;;;;;;0.40;0.40;;;6.50;99.90;;;;;;5072998;28;20461;-82
2023/11/03 05:07:05;;;;;;;0.70;0.40;;;6.60;99.90;;;;;;5072750;28;20494;-82
2023/11/03 05:09:34;;;;;;;0.90;0.77;;;6.60;99.90;;;;;;5073547;28;20437;-82
2023/11/03 05:12:03;;;;;;;0.40;0.30;;;6.60;99.90;;;;;;5072984;28;20456;-83
2023/11/03 05:14:30;;;;;;;0.40;0.40;;;6.50;99.90;;;;;;5072579;28;20476;-82
2023/11/03 05:16:58;;;;;;;0.30;0.30;;;6.50;99.90;;;;;;5072904;28;20489;-82
2023/11/03 05:19:27;;;;;;;0.83;0.40;;;6.50;99.90;;;;;;5072618;28;20502;-82
2023/11/03 05:21:54;;;;;;;0.30;0.30;;;6.50;99.90;;;;;;5072852;28;20449;-82
2023/11/03 05:24:21;;;;;;;7.30;0.60;;;6.50;99.90;;;;;;5073217;28;20472;-82
2023/11/03 05:26:48;;;;;;;0.30;0.30;;;6.60;99.90;;;;;;5076731;28;20494;-82
2023/11/03 05:29:16;;;;;;;0.83;0.57;;;6.60;99.90;;;;;;5076322;28;20500;-82
2023/11/03 05:31:43;;;;;;;1.03;0.40;;;6.60;99.90;;;;;;5076597;28;20797;-82
2023/11/03 05:34:11;;;;;;;0.30;0.30;;;6.50;99.90;;;;;;5076781;28;20499;-82
2023/11/03 05:36:38;;;;;;;0.30;0.30;;;6.50;99.90;;;;;;5076578;28;20824;-82
2023/11/03 05:39:04;;;;;;;0.40;0.40;;;6.50;99.90;;;;;;5076484;28;20453;-82
2023/11/03 05:41:31;;;;;;;0.30;0.30;;;6.50;99.90;;;;;;5076020;28;20515;-82
2023/11/03 05:43:58;;;;;;;0.80;0.80;;;6.40;99.90;;;;;;5076337;28;20465;-83
2023/11/03 05:46:25;;;;;;;0.40;0.40;;;6.30;99.90;;;;;;5076358;28;20451;-82
2023/11/03 05:48:52;;;;;;;0.53;0.50;;;6.20;99.90;;;;;;5076214;28;20820;-82
2023/11/03 05:51:21;;;;;;;0.30;0.20;;;6.20;99.90;;;;;;5076240;28;20452;-82
2023/11/03 05:53:48;;;;;;;0.50;0.50;;;7.50;99.90;;;;;;5076703;28;20559;-83
2023/11/03 05:56:15;;;;;;;2.47;0.73;;;6.30;99.90;;;;;;5076254;28;20449;-82
2023/11/03 05:58:42;;;;;;;0.93;0.43;;;6.30;99.90;;;;;;5076046;28;20491;-84
2023/11/03 06:01:09;;;;;;;0.43;0.43;;;6.40;99.90;;;;;;5077045;28;20445;-82
2023/11/03 06:03:36;;;;;;;5.23;1.07;;;6.40;99.90;;;;;;5080172;28;20472;-82
2023/11/03 06:06:06;;;;;;;0.47;0.47;;;6.40;99.90;;;;;;5076110;28;20452;-82
2023/11/03 06:08:34;;;;;;;0.40;0.37;;;6.40;99.90;;;;;;5076068;28;20472;-82
2023/11/03 06:11:01;;;;;;;0.40;0.40;;;6.50;99.90;;;;;;5075894;28;20472;-82
2023/11/03 06:13:27;;;;;;;0.43;0.30;;;6.50;99.90;;;;;;5075756;28;20496;-82
2023/11/03 06:15:54;;;;;;;0.30;0.30;;;6.50;99.90;;;;;;5075760;28;20949;-82
2023/11/03 06:18:21;;;;;;;0.50;0.43;;;6.50;99.90;;;;;;5075663;28;20480;-82
2023/11/03 06:20:47;;;;;;;0.40;0.40;;;6.50;99.90;;;;;;5075426;28;20452;-83
2023/11/03 06:23:14;;;;;;;0.67;0.30;;;6.50;99.90;;;;;;5075625;28;20444;-82
2023/11/03 06:25:43;;;;;;;0.53;0.53;;;6.60;99.90;;;;;;5075635;28;20445;-82
2023/11/03 06:28:09;;;;;;;0.30;0.30;;;6.60;99.90;;;;;;5075576;28;20437;-83
2023/11/03 06:30:37;;;;;;;0.30;0.30;;;6.60;99.90;;;;;;5075759;28;20445;-83
2023/11/03 06:33:04;;;;;;;0.60;0.40;;;6.70;99.90;;;;;;5075475;28;20488;-83
2023/11/03 06:35:31;;;;;;;1.80;0.83;;;6.70;99.90;;;;;;5075212;28;20453;-83
2023/11/03 06:37:58;;;;;;;0.40;0.40;;;6.70;99.90;;;;;;5075344;28;20465;-82
2023/11/03 06:40:25;;;;;;;0.30;0.30;;;6.70;99.90;;;;;;5075362;28;20453;-83
2023/11/03 06:42:53;;;;;;;0.47;0.47;;;6.70;99.90;;;;;;5074875;28;20485;-82
2023/11/03 06:45:21;;;;;;;0.40;0.40;;;6.60;99.90;;;;;;5076892;28;20465;-81
2023/11/03 06:47:48;;;;;;;0.70;0.37;;;6.70;99.90;;;;;;5075188;28;20463;-81
2023/11/03 06:50:15;;;;;;;0.30;0.30;;;6.70;99.90;;;;;;5074917;28;20453;-82
2023/11/03 06:52:42;;;;;;;2.03;0.47;;;6.70;99.90;;;;;;5074922;28;20930;-82
2023/11/03 06:55:09;;;;;;;0.40;0.30;;;6.70;99.90;;;;;;5074904;28;20460;-82
2023/11/03 06:57:37;;;;;;;0.40;0.30;;;6.60;99.90;;;;;;5074637;28;20488;-82
2023/11/03 07:00:09;;;;;;;1.47;0.50;;;6.60;99.90;;;;;;5074936;28;20480;-82
2023/11/03 07:02:35;;;;;;;0.40;0.33;;;6.50;99.90;;;;;;5074928;28;20429;-82
2023/11/03 07:05:02;;;;;;;3.17;0.57;;;6.60;99.90;;;;;;5074455;28;20469;-82
2023/11/03 07:07:29;;;;;;;0.40;0.30;;;6.60;99.90;;;;;;5074864;28;20441;-82
2023/11/03 07:09:56;;;;;;;0.30;0.30;;;6.70;99.90;;;;;;5074751;28;20437;-82
2023/11/03 07:12:24;;;;;;;0.40;0.40;;;6.70;99.90;;;;;;5074723;28;20445;-82
2023/11/03 07:14:52;;;;;;;0.70;0.70;;;6.60;99.90;;;;;;5074632;28;20522;-82
2023/11/03 07:17:20;;;;;;;0.40;0.40;;;6.60;99.90;;;;;;5074245;28;20866;-82
2023/11/03 07:19:47;;;;;;;0.30;0.30;;;6.60;99.90;;;;;;5074570;28;20536;-82
2023/11/03 07:22:15;;;;;;;0.60;0.50;;;6.70;99.90;;;;;;5074252;28;20926;-82
2023/11/03 07:24:42;;;;;;;0.30;0.30;;;6.70;99.90;;;;;;5074372;28;20534;-82
2023/11/03 07:27:09;;;;;;;0.50;0.40;;;6.60;99.90;;;;;;5074398;28;20491;-82
2023/11/03 07:29:36;;;;;;;2.97;1.53;;;6.60;99.90;;;;;;5074345;28;20440;-82
2023/11/03 07:32:04;;;;;;;0.30;0.30;;;6.60;99.90;;;;;;5074359;28;20448;-82
2023/11/03 07:34:32;;;;;;;0.37;0.37;;;6.70;99.90;;;;;;5074190;28;20468;-82
2023/11/03 07:36:58;;;;;;;0.30;0.30;;;6.80;99.90;;;;;;5074194;28;20449;-82
2023/11/03 07:39:25;;;;;;;0.40;0.33;;;6.70;99.90;;;;;;5074184;28;20440;-82
2023/11/03 07:41:52;;;;;;;0.50;0.40;;;6.70;99.90;;;;;;5073842;28;20504;-82
2023/11/03 07:44:21;;;;;;;0.40;0.30;;;6.60;99.90;;;;;;5074021;28;20464;-82
2023/11/03 07:46:48;;;;;;;0.40;0.30;;;6.60;99.90;;;;;;5073138;28;20502;-82
2023/11/03 07:49:15;;;;;;;0.30;0.27;;;6.60;99.90;;;;;;5073856;28;20445;-82
2023/11/03 07:51:43;;;;;;;0.40;0.37;;;6.80;99.90;;;;;;5073907;28;20452;-82
2023/11/03 07:54:10;;;;;;;0.60;0.40;;;6.80;99.90;;;;;;5073821;28;20518;-82
2023/11/03 07:56:37;;;;;;;0.30;0.30;;;6.90;99.90;;;;;;5073513;28;20445;-82
2023/11/03 07:59:04;;;;;;;2.30;0.40;;;6.90;99.90;;;;;;5073761;28;20476;-82
2023/11/03 08:01:30;;;;;;;0.40;0.37;;;6.90;99.90;;;;;;5073501;28;20448;-82
2023/11/03 08:03:57;;;;;;;0.50;0.50;;;7.00;99.90;;;;;;5073686;28;20461;-82
2023/11/03 08:06:24;;;;;;;0.73;0.70;;;7.10;99.90;;;;;;5073752;28;20440;-82
2023/11/03 08:08:53;;;;;;;0.63;0.40;;;7.20;99.90;;;;;;5073450;28;20452;-82
2023/11/03 08:11:19;;;;;;;0.60;0.40;;;7.20;99.90;;;;;;5073644;28;20451;-82
2023/11/03 08:13:46;;;;;;;0.30;0.30;;;7.30;99.90;;;;;;5073532;28;20468;-82
2023/11/03 08:16:13;;;;;;;0.40;0.30;;;7.40;99.90;;;;;;5073919;28;20425;-80
2023/11/03 08:18:42;;;;;;;0.43;0.40;;;7.40;99.90;;;;;;5112724;22;20491;-77
2023/11/03 08:21:08;;;;;;;0.30;0.30;;;7.40;99.90;;;;;;5053862;28;20460;-77
2023/11/03 08:23:35;;;;;;;1.03;0.40;;;7.50;99.90;;;;;;5054095;28;20446;-77
2023/11/03 08:26:04;;;;;;;2.97;0.40;;;7.50;99.90;;;;;;5053729;28;20438;-77
2023/11/03 08:39:54;;;;;;;0.40;0.30;;;7.80;99.90;;;;;;5035480;28;20525;-82
2023/11/03 08:42:22;;;;;;;0.60;0.30;;;7.90;99.90;;;;;;5062185;22;20430;-79
2023/11/03 08:44:49;;;;;;;0.40;0.40;;;7.90;99.90;;;;;;5033492;28;20459;-79
2023/11/03 08:47:16;;;;;;;0.93;0.43;;;8.00;99.90;;;;;;5033778;28;20450;-78
2023/11/03 08:49:43;;;;;;;0.60;0.40;;;8.10;99.90;;;;;;5033746;28;20449;-79
2023/11/03 08:52:10;;;;;;;1.83;0.97;;;8.10;99.90;;;;;;5034039;28;20449;-78
2023/11/03 08:54:37;;;;;;;0.50;0.50;;;8.20;99.90;;;;;;5033688;28;20462;-79
2023/11/03 08:57:05;;;;;;;0.40;0.40;;;8.30;99.90;;;;;;5033977;28;20504;-79
2023/11/03 08:59:33;;;;;;;0.60;0.50;;;8.40;99.90;;;;;;5036319;28;20489;-79
2023/11/03 09:01:59;;;;;;;1.37;0.40;;;8.40;99.90;;;;;;5037978;28;20485;-78
2023/11/03 09:04:27;;;;;;;1.90;0.40;;;8.40;99.90;;;;;;5037420;28;20462;-79
2023/11/03 09:06:54;;;;;;;0.40;0.30;;;8.40;99.90;;;;;;5037869;28;20930;-78
2023/11/03 09:09:21;;;;;;;0.30;0.30;;;8.30;99.90;;;;;;5037837;28;20797;-78
2023/11/03 09:11:48;;;;;;;0.53;0.30;;;8.30;99.90;;;;;;5037430;28;20458;-78
2023/11/03 09:14:15;;;;;;;0.40;0.30;;;8.40;99.90;;;;;;5037223;28;20455;-79
2023/11/03 09:16:43;;;;;;;0.97;0.53;;;8.40;99.90;;;;;;5037440;28;20454;-80
2023/11/03 09:19:10;;;;;;;0.93;0.50;;;8.40;99.90;;;;;;5038321;28;20486;-78
2023/11/03 09:21:38;;;;;;;0.30;0.30;;;8.30;99.90;;;;;;5037388;28;20447;-78
2023/11/03 09:24:06;;;;;;;0.30;0.30;;;8.40;99.90;;;;;;5037316;28;20476;-78
2023/11/03 09:26:34;;;;;;;5.50;0.40;;;8.50;99.90;;;;;;5037374;28;20439;-78
2023/11/03 09:29:01;;;;;;;0.70;0.50;;;8.50;99.90;;;;;;5037326;28;20446;-78
2023/11/03 09:31:28;;;;;;;0.30;0.30;;;8.50;99.90;;;;;;5036972;28;20792;-78
2023/11/03 09:33:56;;;;;;;4.50;0.60;;;8.50;99.90;;;;;;5036749;28;20466;-78
2023/11/03 09:36:23;;;;;;;0.30;0.30;;;8.60;99.90;;;;;;5036912;28;20969;-78
2023/11/03 09:38:50;;;;;;;0.30;0.30;;;8.70;99.90;;;;;;5037106;28;20488;-77
2023/11/03 09:41:19;;;;;;;2.10;0.40;;;8.70;99.90;;;;;;5037008;28;20455;-78
2023/11/03 09:43:47;;;;;;;1.17;0.60;;;8.80;99.90;;;;;;5036766;28;20548;-78
2023/11/03 09:46:14;;;;;;;0.40;0.40;;;8.80;99.90;;;;;;5036651;28;20930;-78
2023/11/03 09:48:42;;;;;;;0.40;0.40;;;8.90;99.90;;;;;;5036807;28;20441;-78
2023/11/03 09:51:11;;;;;;;0.40;0.30;;;8.80;99.90;;;;;;5036372;28;20931;-78
2023/11/03 09:53:42;;;;;;;0.67;0.30;;;8.90;99.90;;;;;;5036118;28;20975;-78
2023/11/03 09:56:10;;;;;;;0.50;0.30;;;8.90;99.90;;;;;;5036355;28;20518;-77
2023/11/03 09:58:37;;;;;;;0.90;0.50;;;8.90;99.90;;;;;;5036311;28;20478;-78
2023/11/03 10:01:08;;;;;;;3.53;0.30;;;9.00;99.90;;;;;;5036284;28;20481;-78
2023/11/03 10:03:37;;;;;;;1.03;0.30;;;9.10;99.90;;;;;;5036393;28;20466;-78
2023/11/03 10:06:05;;;;;;;0.90;0.40;;;9.10;99.90;;;;;;5036245;28;20466;-78
2023/11/03 10:08:33;;;;;;;1.87;0.63;;;9.20;99.90;;;;;;5036133;28;20449;-78
2023/11/03 10:10:58;;;;;;;2.20;0.80;;;9.30;99.90;;;;;;5036380;28;20529;-79
2023/11/03 10:13:26;;;;;;;0.60;0.50;;;9.30;99.90;;;;;;5036233;28;20471;-79
2023/11/03 10:15:56;;;;;;;2.73;0.63;;;9.40;99.90;;;;;;5036068;28;20250;-79
2023/11/03 10:18:23;;;;;;;2.40;0.70;;;9.50;99.90;;;;;;5035899;28;20486;-79
2023/11/03 10:20:55;;;;;;;0.50;0.47;;;9.60;99.90;;;;;;5036490;28;20488;-78
2023/11/03 10:23:22;;;;;;;4.80;1.77;;;9.60;99.90;;;;;;5035822;28;20993;-78
2023/11/03 10:25:51;;;;;;;0.93;0.50;;;9.70;99.90;;;;;;5036300;28;20439;-78
2023/11/03 10:28:19;;;;;;;0.70;0.40;;;9.70;99.90;;;;;;5036163;28;20863;-78
2023/11/03 10:30:55;;;;;;;0.60;0.60;;;9.70;99.90;;;;;;5045087;28;20439;-78
2023/11/03 10:33:24;;;;;;;0.33;0.30;;;9.70;99.90;;;;;;5036047;28;20466;-77
2023/11/03 10:35:52;;;;;;;0.37;0.30;;;9.70;99.90;;;;;;5035786;28;20477;-78
2023/11/03 10:38:20;;;;;;;0.93;0.40;;;9.80;99.90;;;;;;5035878;28;20833;-78
2023/11/03 10:40:47;;;;;;;0.67;0.50;;;9.90;99.90;;;;;;5035907;28;20451;-78
2023/11/03 10:43:17;;;;;;;0.30;0.30;;;10.00;99.90;;;;;;5035791;28;20496;-78
2023/11/03 10:45:51;;;;;;;0.40;0.40;;;10.00;99.90;;;;;;5035724;28;20431;-78
2023/11/03 10:48:22;;;;;;;0.40;0.40;;;10.00;99.90;;;;;;5035800;28;20419;-76
2023/11/03 10:50:59;;;;;;;0.30;0.30;;;10.00;99.90;;;;;;5035387;28;20783;-76
2023/11/03 10:53:42;;;;;;;3.87;1.30;;;10.00;99.90;;;;;;5036241;28;20482;-77
2023/11/03 10:56:10;;;;;;;1.03;0.50;;;10.10;99.90;;;;;;5035752;28;20526;-77
2023/11/03 10:58:41;;;;;;;0.40;0.30;;;10.10;99.90;;;;;;5035380;28;20532;-78
2023/11/03 11:01:15;;;;;;;1.80;1.37;;;10.10;99.90;;;;;;5035562;28;20427;-77
2023/11/03 11:03:50;;;;;;;1.20;0.47;;;10.20;99.90;;;;;;5035435;28;20461;-78
2023/11/03 11:06:21;;;;;;;1.70;0.30;;;10.20;99.90;;;;;;5035722;28;20458;-78
2023/11/03 11:08:53;;;;;;;0.30;0.20;;;10.30;99.90;;;;;;5035763;28;20476;-78
2023/11/03 11:11:20;;;;;;;0.30;0.30;;;10.30;99.90;;;;;;5035614;28;20833;-78
2023/11/03 11:13:49;;;;;;;0.57;0.30;;;10.20;99.90;;;;;;5035480;28;20462;-78
2023/11/03 11:16:18;;;;;;;0.40;0.30;;;10.20;99.90;;;;;;5035334;28;20549;-77
2023/11/03 11:18:51;;;;;;;0.40;0.30;;;10.20;99.90;;;;;;5035046;28;20479;-78
2023/11/03 11:21:27;;;;;;;0.77;0.40;;;10.20;99.90;;;;;;5035222;28;20435;-78
2023/11/03 11:23:56;;;;;;;3.97;0.87;;;10.20;99.90;;;;;;5034613;28;20466;-77
2023/11/03 11:26:25;;;;;;;0.80;0.80;;;10.30;99.90;;;;;;5035356;28;20490;-76
2023/11/03 11:28:53;;;;;;;0.70;0.40;;;10.10;99.90;;;;;;5034732;28;20438;-78
2023/11/03 11:31:40;;;;;;;0.30;0.30;;;10.20;99.90;;;;;;5034578;28;20465;-78
2023/11/03 11:34:08;;;;;;;0.30;0.20;;;10.20;99.90;;;;;;5034421;28;20506;-78
2023/11/03 11:36:39;;;;;;;0.30;0.30;;;10.20;99.90;;;;;;5034456;28;20450;-78
2023/11/03 11:39:13;;;;;;;0.40;0.30;;;10.20;99.90;;;;;;5034657;28;20562;-77
2023/11/03 11:41:47;;;;;;;0.30;0.30;;;10.30;99.90;;;;;;5034758;28;20816;-77
2023/11/03 11:44:19;;;;;;;0.30;0.30;;;10.30;99.90;;;;;;5034715;28;20485;-77
2023/11/03 11:46:52;;;;;;;0.50;0.30;;;10.20;99.90;;;;;;5035068;28;20435;-77
2023/11/03 11:49:22;;;;;;;0.60;0.60;;;10.20;99.90;;;;;;5034938;28;20474;-77
2023/11/03 11:51:50;;;;;;;0.30;0.30;;;10.30;99.90;;;;;;5034784;28;20442;-77
2023/11/03 11:54:18;;;;;;;0.40;0.30;;;10.20;99.90;;;;;;5034746;28;20931;-77
2023/11/03 11:56:46;;;;;;;0.30;0.30;;;10.20;99.90;;;;;;5034946;28;20446;-77
2023/11/03 11:59:16;;;;;;;0.30;0.30;;;10.30;99.90;;;;;;5034515;28;20485;-77
2023/11/03 12:01:46;;;;;;;0.30;0.20;;;10.20;99.90;;;;;;5034478;28;20988;-77
2023/11/03 12:04:13;;;;;;;0.30;0.20;;;10.30;99.90;;;;;;5034581;28;20539;-77
2023/11/03 12:06:41;;;;;;;0.47;0.30;;;10.30;99.90;;;;;;5034659;28;20478;-77
2023/11/03 12:09:08;;;;;;;0.40;0.40;;;10.20;99.90;;;;;;5034544;28;20530;-77
2023/11/03 12:11:36;;;;;;;0.50;0.33;;;10.20;99.90;;;;;;5034502;28;20478;-76
2023/11/03 12:14:03;;;;;;;0.30;0.30;;;10.30;99.90;;;;;;5034317;28;20470;-77
2023/11/03 12:16:30;;;;;;;0.30;0.20;;;10.30;99.90;;;;;;5034290;28;20438;-78
2023/11/03 12:18:58;;;;;;;0.30;0.20;;;10.20;99.90;;;;;;5034185;28;20483;-77
2023/11/03 12:21:25;;;;;;;0.50;0.30;;;10.30;99.90;;;;;;5034414;28;20950;-77
2023/11/03 12:23:52;;;;;;;0.40;0.30;;;10.30;99.90;;;;;;5034158;28;20469;-78
2023/11/03 12:26:19;;;;;;;0.30;0.30;;;10.30;99.90;;;;;;5034520;28;20815;-78
2023/11/03 12:28:46;;;;;;;0.30;0.20;;;10.30;99.90;;;;;;5034439;28;20439;-77
2023/11/03 12:31:13;;;;;;;0.67;0.30;;;10.20;99.90;;;;;;5034209;28;20938;-78
2023/11/03 12:33:41;;;;;;;0.30;0.20;;;10.10;99.90;;;;;;5033860;28;20473;-78
2023/11/03 12:36:11;;;;;;;0.40;0.30;;;10.20;99.90;;;;;;5034412;28;20481;-77
2023/11/03 12:38:47;;;;;;;0.40;0.30;;;10.10;99.90;;;;;;5047080;28;20450;-79
2023/11/03 12:41:15;;;;;;;0.30;0.30;;;10.30;99.90;;;;;;5040648;28;20427;-76
2023/11/03 12:44:00;;;;;;;0.30;0.30;;;10.10;99.90;;;;;;5033784;28;20570;-77
2023/11/03 12:46:29;;;;;;;0.30;0.30;;;10.10;99.90;;;;;;5034272;28;20431;-77
2023/11/03 12:49:06;;;;;;;1.00;0.30;;;10.10;99.90;;;;;;5036238;28;20505;-77
2023/11/03 12:51:35;;;;;;;0.40;0.30;;;10.20;99.90;;;;;;5035401;28;20427;-77
2023/11/03 12:54:02;;;;;;;0.40;0.30;;;10.10;99.90;;;;;;5033956;28;20891;-80
2023/11/03 12:56:44;;;;;;;0.50;0.37;;;10.20;99.90;;;;;;5034215;28;20891;-78
2023/11/03 12:59:11;;;;;;;0.30;0.20;;;10.30;99.90;;;;;;5033983;28;20474;-78
2023/11/03 13:01:38;;;;;;;0.30;0.30;;;10.30;99.90;;;;;;5034387;28;20450;-78
2023/11/03 13:04:05;;;;;;;0.30;0.30;;;10.30;99.90;;;;;;5033750;28;20463;-78
2023/11/03 13:06:34;;;;;;;0.40;0.30;;;10.40;99.90;;;;;;5033936;28;20541;-78
2023/11/03 13:09:01;;;;;;;0.47;0.27;;;10.40;99.90;;;;;;5033917;28;20435;-78